sensor_id;sensor_type;location;lat;lon;timestamp;temperature;humidity
1570;DHT22;778;50.120;8.698;2023-09-19T00:01:49;18.70;99.90
1570;DHT22;778;50.120;8.698;2023-09-19T00:04:19;18.50;99.90
1570;DHT22;778;50.120;8.698;2023-09-19T00:06:50;18.60;99.90
1570;DHT22;778;50.120;8.698;2023-09-19T00:09:20;18.50;99.90
1570;DHT22;778;50.120;8.698;2023-09-19T00:11:50;18.40;99.90
1570;DHT22;778;50.120;8.698;2023-09-19T00:14:18;18.40;99.90
1570;DHT22;778;50.120;8.698;2023-09-19T00:16:46;18.50;99.90
1570;DHT22;778;50.120;8.698;2023-09-19T00:19:18;18.40;99.90
1570;DHT22;778;50.120;8.698;2023-09-19T00:21:46;18.40;99.90
1570;DHT22;778;50.120;8.698;2023-09-19T00:24:14;18.40;99.90
1570;DHT22;778;50.120;8.698;2023-09-19T00:26:44;18.40;99.90
1570;DHT22;778;50.120;8.698;2023-09-19T00:29:15;18.50;99.90
1570;DHT22;778;50.120;8.698;2023-09-19T00:31:44;18.40;99.90
1570;DHT22;778;50.120;8.698;2023-09-19T00:34:14;18.30;99.90
1570;DHT22;778;50.120;8.698;2023-09-19T00:36:45;18.30;99.90
1570;DHT22;778;50.120;8.698;2023-09-19T00:39:13;18.30;99.90
1570;DHT22;778;50.120;8.698;2023-09-19T00:41:42;18.20;99.90
1570;DHT22;778;50.120;8.698;2023-09-19T00:44:11;18.30;99.90
1570;DHT22;778;50.120;8.698;2023-09-19T00:46:40;18.30;99.90
1570;DHT22;778;50.120;8.698;2023-09-19T00:49:09;18.30;99.90
1570;DHT22;778;50.120;8.698;2023-09-19T00:51:39;18.30;99.90
1570;DHT22;778;50.120;8.698;2023-09-19T00:54:14;18.20;99.90
1570;DHT22;778;50.120;8.698;2023-09-19T00:56:46;18.20;99.90
1570;DHT22;778;50.120;8.698;2023-09-19T00:59:16;18.20;99.90
1570;DHT22;778;50.120;8.698;2023-09-19T01:01:44;18.20;99.90
1570;DHT22;778;50.120;8.698;2023-09-19T01:04:15;18.10;99.90
1570;DHT22;778;50.120;8.698;2023-09-19T01:06:44;18.20;99.90
1570;DHT22;778;50.120;8.698;2023-09-19T01:09:15;18.10;99.90
1570;DHT22;778;50.120;8.698;2023-09-19T01:11:44;18.20;99.90
1570;DHT22;778;50.120;8.698;2023-09-19T01:14:25;18.10;99.90
1570;DHT22;778;50.120;8.698;2023-09-19T01:17:05;18.20;99.90
1570;DHT22;778;50.120;8.698;2023-09-19T01:20:15;18.20;99.90
1570;DHT22;778;50.120;8.698;2023-09-19T01:22:56;18.30;99.90
1570;DHT22;778;50.120;8.698;2023-09-19T01:26:11;18.40;99.90
1570;DHT22;778;50.120;8.698;2023-09-19T01:28:53;18.40;99.90
1570;DHT22;778;50.120;8.698;2023-09-19T01:31:32;18.30;99.90
1570;DHT22;778;50.120;8.698;2023-09-19T01:34:03;18.30;99.90
1570;DHT22;778;50.120;8.698;2023-09-19T01:36:35;18.30;99.90
1570;DHT22;778;50.120;8.698;2023-09-19T01:39:07;18.30;99.90
1570;DHT22;778;50.120;8.698;2023-09-19T01:41:54;18.30;99.90
1570;DHT22;778;50.120;8.698;2023-09-19T01:44:34;18.30;99.90
1570;DHT22;778;50.120;8.698;2023-09-19T01:47:13;18.20;99.90
1570;DHT22;778;50.120;8.698;2023-09-19T01:49:55;18.20;99.90
1570;DHT22;778;50.120;8.698;2023-09-19T01:52:36;18.20;99.90
1570;DHT22;778;50.120;8.698;2023-09-19T01:55:10;18.20;99.90
1570;DHT22;778;50.120;8.698;2023-09-19T01:57:48;18.20;99.90
1570;DHT22;778;50.120;8.698;2023-09-19T02:00:20;18.40;99.90
1570;DHT22;778;50.120;8.698;2023-09-19T02:02:54;18.30;99.90
1570;DHT22;778;50.120;8.698;2023-09-19T02:05:26;18.20;99.90
1570;DHT22;778;50.120;8.698;2023-09-19T02:07:55;18.40;99.90
1570;DHT22;778;50.120;8.698;2023-09-19T02:10:25;18.20;99.90
1570;DHT22;778;50.120;8.698;2023-09-19T02:12:54;18.10;99.90
1570;DHT22;778;50.120;8.698;2023-09-19T02:15:23;18.10;99.90
1570;DHT22;778;50.120;8.698;2023-09-19T02:17:51;18.20;99.90
1570;DHT22;778;50.120;8.698;2023-09-19T02:20:21;18.10;99.90
1570;DHT22;778;50.120;8.698;2023-09-19T02:22:50;18.10;99.90
1570;DHT22;778;50.120;8.698;2023-09-19T02:25:19;18.10;99.90
1570;DHT22;778;50.120;8.698;2023-09-19T02:27:47;18.00;99.90
1570;DHT22;778;50.120;8.698;2023-09-19T02:30:16;17.90;99.90
1570;DHT22;778;50.120;8.698;2023-09-19T02:32:48;18.00;99.90
1570;DHT22;778;50.120;8.698;2023-09-19T02:35:17;18.00;99.90
1570;DHT22;778;50.120;8.698;2023-09-19T02:37:49;18.00;99.90
1570;DHT22;778;50.120;8.698;2023-09-19T02:40:19;17.90;99.90
1570;DHT22;778;50.120;8.698;2023-09-19T02:42:49;17.90;99.90
1570;DHT22;778;50.120;8.698;2023-09-19T02:45:22;17.90;99.90
1570;DHT22;778;50.120;8.698;2023-09-19T02:47:52;18.00;99.90
1570;DHT22;778;50.120;8.698;2023-09-19T02:50:22;18.00;99.90
1570;DHT22;778;50.120;8.698;2023-09-19T02:52:52;17.90;99.90
1570;DHT22;778;50.120;8.698;2023-09-19T02:55:20;18.00;99.90
1570;DHT22;778;50.120;8.698;2023-09-19T02:57:50;18.00;99.90
1570;DHT22;778;50.120;8.698;2023-09-19T03:00:22;18.00;99.90
1570;DHT22;778;50.120;8.698;2023-09-19T03:02:54;17.90;99.90
1570;DHT22;778;50.120;8.698;2023-09-19T03:05:23;17.80;99.90
1570;DHT22;778;50.120;8.698;2023-09-19T03:07:54;17.70;99.90
1570;DHT22;778;50.120;8.698;2023-09-19T03:10:23;17.70;99.90
1570;DHT22;778;50.120;8.698;2023-09-19T03:12:53;17.70;99.90
1570;DHT22;778;50.120;8.698;2023-09-19T03:15:22;17.70;99.90
1570;DHT22;778;50.120;8.698;2023-09-19T03:17:52;17.80;99.90
1570;DHT22;778;50.120;8.698;2023-09-19T03:20:22;17.80;99.90
1570;DHT22;778;50.120;8.698;2023-09-19T03:22:53;17.70;99.90
1570;DHT22;778;50.120;8.698;2023-09-19T03:25:22;17.60;99.90
1570;DHT22;778;50.120;8.698;2023-09-19T03:27:52;17.60;99.90
1570;DHT22;778;50.120;8.698;2023-09-19T03:30:22;17.70;99.90
1570;DHT22;778;50.120;8.698;2023-09-19T03:32:51;17.60;99.90
1570;DHT22;778;50.120;8.698;2023-09-19T03:35:20;17.60;99.90
1570;DHT22;778;50.120;8.698;2023-09-19T03:37:49;17.50;99.90
1570;DHT22;778;50.120;8.698;2023-09-19T03:40:21;17.40;99.90
1570;DHT22;778;50.120;8.698;2023-09-19T03:42:50;17.30;99.90
1570;DHT22;778;50.120;8.698;2023-09-19T03:45:19;17.40;99.90
1570;DHT22;778;50.120;8.698;2023-09-19T03:47:50;17.40;99.90
1570;DHT22;778;50.120;8.698;2023-09-19T03:50:22;17.40;99.90
1570;DHT22;778;50.120;8.698;2023-09-19T03:52:56;17.30;99.90
1570;DHT22;778;50.120;8.698;2023-09-19T03:55:26;17.40;99.90
1570;DHT22;778;50.120;8.698;2023-09-19T03:57:57;17.30;99.90
1570;DHT22;778;50.120;8.698;2023-09-19T04:00:25;17.40;99.90
1570;DHT22;778;50.120;8.698;2023-09-19T04:02:54;17.30;99.90
1570;DHT22;778;50.120;8.698;2023-09-19T04:05:24;17.60;99.90
1570;DHT22;778;50.120;8.698;2023-09-19T04:07:52;17.50;99.90
1570;DHT22;778;50.120;8.698;2023-09-19T04:10:21;17.50;99.90
1570;DHT22;778;50.120;8.698;2023-09-19T04:12:54;17.40;99.90
1570;DHT22;778;50.120;8.698;2023-09-19T04:15:23;17.40;99.90
1570;DHT22;778;50.120;8.698;2023-09-19T04:17:53;17.30;99.90
1570;DHT22;778;50.120;8.698;2023-09-19T04:20:22;17.30;99.90
1570;DHT22;778;50.120;8.698;2023-09-19T04:22:51;17.30;99.90
1570;DHT22;778;50.120;8.698;2023-09-19T04:25:19;17.40;99.90
1570;DHT22;778;50.120;8.698;2023-09-19T04:27:48;17.40;99.90
1570;DHT22;778;50.120;8.698;2023-09-19T04:30:18;17.40;99.90
1570;DHT22;778;50.120;8.698;2023-09-19T04:32:48;17.40;99.90
1570;DHT22;778;50.120;8.698;2023-09-19T04:35:18;17.50;99.90
1570;DHT22;778;50.120;8.698;2023-09-19T04:37:47;17.50;99.90
1570;DHT22;778;50.120;8.698;2023-09-19T04:40:16;17.60;99.90
1570;DHT22;778;50.120;8.698;2023-09-19T04:42:53;17.60;99.90
1570;DHT22;778;50.120;8.698;2023-09-19T04:45:25;17.60;99.90
1570;DHT22;778;50.120;8.698;2023-09-19T04:47:54;17.50;99.90
1570;DHT22;778;50.120;8.698;2023-09-19T04:50:23;17.50;99.90
1570;DHT22;778;50.120;8.698;2023-09-19T04:52:55;17.50;99.90
1570;DHT22;778;50.120;8.698;2023-09-19T04:55:23;17.50;99.90
1570;DHT22;778;50.120;8.698;2023-09-19T04:57:52;17.50;99.90
1570;DHT22;778;50.120;8.698;2023-09-19T05:00:22;17.30;99.90
1570;DHT22;778;50.120;8.698;2023-09-19T05:02:55;17.40;99.90
1570;DHT22;778;50.120;8.698;2023-09-19T05:05:25;17.60;99.90
1570;DHT22;778;50.120;8.698;2023-09-19T05:07:53;17.40;99.90
1570;DHT22;778;50.120;8.698;2023-09-19T05:10:23;17.50;99.90
1570;DHT22;778;50.120;8.698;2023-09-19T05:12:53;17.40;99.90
1570;DHT22;778;50.120;8.698;2023-09-19T05:15:22;17.30;99.90
1570;DHT22;778;50.120;8.698;2023-09-19T05:17:52;17.40;99.90
1570;DHT22;778;50.120;8.698;2023-09-19T05:20:24;17.50;99.90
1570;DHT22;778;50.120;8.698;2023-09-19T05:23:01;17.50;99.90
1570;DHT22;778;50.120;8.698;2023-09-19T05:25:31;17.70;99.90
1570;DHT22;778;50.120;8.698;2023-09-19T05:28:05;17.50;99.90
1570;DHT22;778;50.120;8.698;2023-09-19T05:30:35;17.40;99.90
1570;DHT22;778;50.120;8.698;2023-09-19T05:33:07;17.40;99.90
1570;DHT22;778;50.120;8.698;2023-09-19T05:35:36;17.50;99.90
1570;DHT22;778;50.120;8.698;2023-09-19T05:38:08;17.40;99.90
1570;DHT22;778;50.120;8.698;2023-09-19T05:40:38;17.40;99.90
1570;DHT22;778;50.120;8.698;2023-09-19T05:43:09;17.40;99.90
1570;DHT22;778;50.120;8.698;2023-09-19T05:45:38;17.40;99.90
1570;DHT22;778;50.120;8.698;2023-09-19T05:48:11;17.40;99.90
1570;DHT22;778;50.120;8.698;2023-09-19T05:50:40;17.30;99.90
1570;DHT22;778;50.120;8.698;2023-09-19T05:53:09;17.30;99.90
1570;DHT22;778;50.120;8.698;2023-09-19T05:55:39;17.30;99.90
1570;DHT22;778;50.120;8.698;2023-09-19T05:58:08;17.30;99.90
1570;DHT22;778;50.120;8.698;2023-09-19T06:00:41;17.20;99.90
1570;DHT22;778;50.120;8.698;2023-09-19T06:03:13;17.50;99.90
1570;DHT22;778;50.120;8.698;2023-09-19T06:05:42;17.40;99.90
1570;DHT22;778;50.120;8.698;2023-09-19T06:08:10;17.60;99.90
1570;DHT22;778;50.120;8.698;2023-09-19T06:10:39;17.50;99.90
1570;DHT22;778;50.120;8.698;2023-09-19T06:13:07;17.50;99.90
1570;DHT22;778;50.120;8.698;2023-09-19T06:15:37;17.60;99.90
1570;DHT22;778;50.120;8.698;2023-09-19T06:18:10;17.70;99.90
1570;DHT22;778;50.120;8.698;2023-09-19T06:20:47;17.60;99.90
1570;DHT22;778;50.120;8.698;2023-09-19T06:23:18;17.60;99.90
1570;DHT22;778;50.120;8.698;2023-09-19T06:25:49;17.60;99.90
1570;DHT22;778;50.120;8.698;2023-09-19T06:28:18;17.60;99.90
1570;DHT22;778;50.120;8.698;2023-09-19T06:30:51;17.60;99.90
1570;DHT22;778;50.120;8.698;2023-09-19T06:33:21;17.70;99.90
1570;DHT22;778;50.120;8.698;2023-09-19T06:35:50;17.80;99.90
1570;DHT22;778;50.120;8.698;2023-09-19T06:38:19;17.70;99.90
1570;DHT22;778;50.120;8.698;2023-09-19T06:40:48;17.80;99.90
1570;DHT22;778;50.120;8.698;2023-09-19T06:43:16;17.80;99.90
1570;DHT22;778;50.120;8.698;2023-09-19T06:45:46;17.90;99.90
1570;DHT22;778;50.120;8.698;2023-09-19T06:48:15;17.90;99.90
1570;DHT22;778;50.120;8.698;2023-09-19T06:50:45;18.00;99.90
1570;DHT22;778;50.120;8.698;2023-09-19T06:53:14;18.30;99.90
1570;DHT22;778;50.120;8.698;2023-09-19T06:55:43;18.40;99.90
1570;DHT22;778;50.120;8.698;2023-09-19T06:58:12;18.30;99.90
1570;DHT22;778;50.120;8.698;2023-09-19T07:00:40;18.20;99.90
1570;DHT22;778;50.120;8.698;2023-09-19T07:03:09;18.00;99.90
1570;DHT22;778;50.120;8.698;2023-09-19T07:05:40;18.10;99.90
1570;DHT22;778;50.120;8.698;2023-09-19T07:08:11;18.10;99.90
1570;DHT22;778;50.120;8.698;2023-09-19T07:10:40;18.50;99.90
1570;DHT22;778;50.120;8.698;2023-09-19T07:13:15;18.60;99.90
1570;DHT22;778;50.120;8.698;2023-09-19T07:15:45;18.20;99.90
1570;DHT22;778;50.120;8.698;2023-09-19T07:18:17;18.50;99.90
1570;DHT22;778;50.120;8.698;2023-09-19T07:20:47;18.70;99.90
1570;DHT22;778;50.120;8.698;2023-09-19T07:23:21;18.50;99.90
1570;DHT22;778;50.120;8.698;2023-09-19T07:25:50;18.60;99.90
1570;DHT22;778;50.120;8.698;2023-09-19T07:28:19;18.70;99.90
1570;DHT22;778;50.120;8.698;2023-09-19T07:30:47;18.70;99.90
1570;DHT22;778;50.120;8.698;2023-09-19T07:33:16;19.00;99.90
1570;DHT22;778;50.120;8.698;2023-09-19T07:35:45;19.00;99.90
1570;DHT22;778;50.120;8.698;2023-09-19T07:38:14;18.70;99.90
1570;DHT22;778;50.120;8.698;2023-09-19T07:40:45;18.80;99.90
1570;DHT22;778;50.120;8.698;2023-09-19T07:43:14;18.90;99.90
1570;DHT22;778;50.120;8.698;2023-09-19T07:45:42;18.80;99.90
1570;DHT22;778;50.120;8.698;2023-09-19T07:48:10;18.90;99.90
1570;DHT22;778;50.120;8.698;2023-09-19T07:50:42;19.00;99.90
1570;DHT22;778;50.120;8.698;2023-09-19T07:53:11;19.10;99.90
1570;DHT22;778;50.120;8.698;2023-09-19T07:55:42;19.10;99.90
1570;DHT22;778;50.120;8.698;2023-09-19T07:58:16;18.90;99.90
1570;DHT22;778;50.120;8.698;2023-09-19T08:00:45;18.70;99.90
1570;DHT22;778;50.120;8.698;2023-09-19T08:03:13;18.90;99.90
1570;DHT22;778;50.120;8.698;2023-09-19T08:05:44;19.10;99.90
1570;DHT22;778;50.120;8.698;2023-09-19T08:08:13;19.10;99.90
1570;DHT22;778;50.120;8.698;2023-09-19T08:10:42;19.10;99.90
1570;DHT22;778;50.120;8.698;2023-09-19T08:13:13;19.00;99.90
1570;DHT22;778;50.120;8.698;2023-09-19T08:15:45;19.10;99.90
1570;DHT22;778;50.120;8.698;2023-09-19T08:18:15;19.10;99.90
1570;DHT22;778;50.120;8.698;2023-09-19T08:20:49;19.00;99.90
1570;DHT22;778;50.120;8.698;2023-09-19T08:23:20;18.80;99.90
1570;DHT22;778;50.120;8.698;2023-09-19T08:25:48;18.70;99.90
1570;DHT22;778;50.120;8.698;2023-09-19T08:28:24;18.80;99.90
1570;DHT22;778;50.120;8.698;2023-09-19T08:30:53;19.00;99.90
1570;DHT22;778;50.120;8.698;2023-09-19T08:33:22;19.20;99.90
1570;DHT22;778;50.120;8.698;2023-09-19T08:35:50;19.00;99.90
1570;DHT22;778;50.120;8.698;2023-09-19T08:38:19;19.10;99.90
1570;DHT22;778;50.120;8.698;2023-09-19T08:40:47;19.00;99.90
1570;DHT22;778;50.120;8.698;2023-09-19T08:43:16;18.90;99.90
1570;DHT22;778;50.120;8.698;2023-09-19T08:45:46;18.90;99.90
1570;DHT22;778;50.120;8.698;2023-09-19T08:48:22;19.30;99.90
1570;DHT22;778;50.120;8.698;2023-09-19T08:50:56;19.40;99.90
1570;DHT22;778;50.120;8.698;2023-09-19T08:53:27;19.20;99.90
1570;DHT22;778;50.120;8.698;2023-09-19T08:56:00;19.90;99.90
1570;DHT22;778;50.120;8.698;2023-09-19T08:58:34;20.00;99.90
1570;DHT22;778;50.120;8.698;2023-09-19T09:01:06;20.10;99.90
1570;DHT22;778;50.120;8.698;2023-09-19T09:03:37;20.40;99.90
1570;DHT22;778;50.120;8.698;2023-09-19T09:06:08;20.60;99.90
1570;DHT22;778;50.120;8.698;2023-09-19T09:08:41;20.50;99.90
1570;DHT22;778;50.120;8.698;2023-09-19T09:11:10;20.90;99.90
1570;DHT22;778;50.120;8.698;2023-09-19T09:13:42;20.70;99.90
1570;DHT22;778;50.120;8.698;2023-09-19T09:16:13;20.80;99.90
1570;DHT22;778;50.120;8.698;2023-09-19T09:18:46;21.00;99.90
1570;DHT22;778;50.120;8.698;2023-09-19T09:21:20;20.80;99.90
1570;DHT22;778;50.120;8.698;2023-09-19T09:23:49;21.10;99.90
1570;DHT22;778;50.120;8.698;2023-09-19T09:26:41;21.40;99.90
1570;DHT22;778;50.120;8.698;2023-09-19T09:29:11;21.20;99.90
1570;DHT22;778;50.120;8.698;2023-09-19T09:31:47;21.00;99.90
1570;DHT22;778;50.120;8.698;2023-09-19T09:34:16;21.10;99.90
1570;DHT22;778;50.120;8.698;2023-09-19T09:36:48;21.10;99.90
1570;DHT22;778;50.120;8.698;2023-09-19T09:39:30;21.50;99.90
1570;DHT22;778;50.120;8.698;2023-09-19T09:41:59;21.50;99.90
1570;DHT22;778;50.120;8.698;2023-09-19T09:44:34;21.90;99.90
1570;DHT22;778;50.120;8.698;2023-09-19T09:47:04;21.80;99.90
1570;DHT22;778;50.120;8.698;2023-09-19T09:49:50;21.60;99.90
1570;DHT22;778;50.120;8.698;2023-09-19T09:52:44;21.40;99.90
1570;DHT22;778;50.120;8.698;2023-09-19T09:55:13;21.40;99.90
1570;DHT22;778;50.120;8.698;2023-09-19T09:57:42;21.30;99.90
1570;DHT22;778;50.120;8.698;2023-09-19T10:00:11;21.60;99.90
1570;DHT22;778;50.120;8.698;2023-09-19T10:02:49;21.60;99.90
1570;DHT22;778;50.120;8.698;2023-09-19T10:05:19;21.70;99.90
1570;DHT22;778;50.120;8.698;2023-09-19T10:07:56;21.90;99.90
1570;DHT22;778;50.120;8.698;2023-09-19T10:10:32;21.80;99.90
1570;DHT22;778;50.120;8.698;2023-09-19T10:13:07;22.00;99.90
1570;DHT22;778;50.120;8.698;2023-09-19T10:15:42;22.40;99.90
1570;DHT22;778;50.120;8.698;2023-09-19T10:18:20;22.70;99.90
1570;DHT22;778;50.120;8.698;2023-09-19T10:20:49;22.30;99.90
1570;DHT22;778;50.120;8.698;2023-09-19T10:23:20;22.20;99.90
1570;DHT22;778;50.120;8.698;2023-09-19T10:25:51;22.40;99.90
1570;DHT22;778;50.120;8.698;2023-09-19T10:28:21;22.20;99.90
1570;DHT22;778;50.120;8.698;2023-09-19T10:30:51;22.00;99.90
1570;DHT22;778;50.120;8.698;2023-09-19T10:33:23;22.10;99.90
1570;DHT22;778;50.120;8.698;2023-09-19T10:35:53;22.00;99.90
1570;DHT22;778;50.120;8.698;2023-09-19T10:38:24;22.20;99.90
1570;DHT22;778;50.120;8.698;2023-09-19T10:40:54;22.20;99.90
1570;DHT22;778;50.120;8.698;2023-09-19T10:43:31;22.50;99.90
1570;DHT22;778;50.120;8.698;2023-09-19T10:46:07;22.60;99.90
1570;DHT22;778;50.120;8.698;2023-09-19T10:48:39;22.40;99.90
1570;DHT22;778;50.120;8.698;2023-09-19T10:51:14;22.50;99.50
1570;DHT22;778;50.120;8.698;2023-09-19T10:53:48;22.00;99.90
1570;DHT22;778;50.120;8.698;2023-09-19T10:56:24;21.50;99.30
1570;DHT22;778;50.120;8.698;2023-09-19T10:59:06;21.80;99.90
1570;DHT22;778;50.120;8.698;2023-09-19T11:01:45;21.40;99.90
1570;DHT22;778;50.120;8.698;2023-09-19T11:04:26;21.90;99.90
1570;DHT22;778;50.120;8.698;2023-09-19T11:07:01;21.70;99.30
1570;DHT22;778;50.120;8.698;2023-09-19T11:09:47;21.30;99.50
1570;DHT22;778;50.120;8.698;2023-09-19T11:12:50;21.80;98.70
1570;DHT22;778;50.120;8.698;2023-09-19T11:18:55;22.20;98.50
1570;DHT22;778;50.120;8.698;2023-09-19T11:24:28;22.50;99.00
1570;DHT22;778;50.120;8.698;2023-09-19T11:27:12;22.40;96.60
1570;DHT22;778;50.120;8.698;2023-09-19T11:29:44;22.50;96.60
1570;DHT22;778;50.120;8.698;2023-09-19T11:32:14;22.30;96.70
1570;DHT22;778;50.120;8.698;2023-09-19T11:34:45;22.30;96.90
1570;DHT22;778;50.120;8.698;2023-09-19T11:40:46;21.60;96.30
1570;DHT22;778;50.120;8.698;2023-09-19T11:43:32;21.90;98.40
1570;DHT22;778;50.120;8.698;2023-09-19T11:46:06;21.80;96.30
1570;DHT22;778;50.120;8.698;2023-09-19T11:48:35;21.60;95.60
1570;DHT22;778;50.120;8.698;2023-09-19T11:51:16;22.00;96.70
1570;DHT22;778;50.120;8.698;2023-09-19T11:53:53;21.80;95.00
1570;DHT22;778;50.120;8.698;2023-09-19T11:56:23;22.10;95.20
1570;DHT22;778;50.120;8.698;2023-09-19T11:58:55;21.90;95.70
1570;DHT22;778;50.120;8.698;2023-09-19T12:01:29;21.90;95.60
1570;DHT22;778;50.120;8.698;2023-09-19T12:04:01;21.80;94.30
1570;DHT22;778;50.120;8.698;2023-09-19T12:06:32;21.90;94.80
1570;DHT22;778;50.120;8.698;2023-09-19T12:09:03;21.70;94.90
1570;DHT22;778;50.120;8.698;2023-09-19T12:11:42;21.80;93.90
1570;DHT22;778;50.120;8.698;2023-09-19T12:14:11;21.70;93.50
1570;DHT22;778;50.120;8.698;2023-09-19T12:16:40;21.80;94.10
1570;DHT22;778;50.120;8.698;2023-09-19T12:19:22;21.90;93.60
1570;DHT22;778;50.120;8.698;2023-09-19T12:21:55;22.00;94.40
1570;DHT22;778;50.120;8.698;2023-09-19T12:24:33;22.30;93.80
1570;DHT22;778;50.120;8.698;2023-09-19T12:27:06;22.30;92.90
1570;DHT22;778;50.120;8.698;2023-09-19T12:29:43;22.30;93.60
1570;DHT22;778;50.120;8.698;2023-09-19T12:32:12;22.20;93.20
1570;DHT22;778;50.120;8.698;2023-09-19T12:34:51;22.20;94.30
1570;DHT22;778;50.120;8.698;2023-09-19T12:37:22;22.00;93.00
1570;DHT22;778;50.120;8.698;2023-09-19T12:40:05;22.10;93.10
1570;DHT22;778;50.120;8.698;2023-09-19T12:42:45;22.40;93.10
1570;DHT22;778;50.120;8.698;2023-09-19T12:45:15;22.20;92.10
1570;DHT22;778;50.120;8.698;2023-09-19T12:48:17;22.30;92.10
1570;DHT22;778;50.120;8.698;2023-09-19T12:53:36;22.20;92.10
1570;DHT22;778;50.120;8.698;2023-09-19T12:56:10;22.20;91.50
1570;DHT22;778;50.120;8.698;2023-09-19T12:58:51;22.20;91.20
1570;DHT22;778;50.120;8.698;2023-09-19T13:01:22;22.20;91.60
1570;DHT22;778;50.120;8.698;2023-09-19T13:04:14;22.20;91.40
1570;DHT22;778;50.120;8.698;2023-09-19T13:06:48;22.10;89.60
1570;DHT22;778;50.120;8.698;2023-09-19T13:09:18;22.00;91.00
1570;DHT22;778;50.120;8.698;2023-09-19T13:11:50;22.20;91.20
1570;DHT22;778;50.120;8.698;2023-09-19T13:14:21;22.30;91.00
1570;DHT22;778;50.120;8.698;2023-09-19T13:16:59;22.30;90.30
1570;DHT22;778;50.120;8.698;2023-09-19T13:19:40;22.30;91.00
1570;DHT22;778;50.120;8.698;2023-09-19T13:22:36;22.30;89.30
1570;DHT22;778;50.120;8.698;2023-09-19T13:25:07;22.10;88.70
1570;DHT22;778;50.120;8.698;2023-09-19T13:27:44;22.20;90.30
1570;DHT22;778;50.120;8.698;2023-09-19T13:30:15;22.00;87.30
1570;DHT22;778;50.120;8.698;2023-09-19T13:32:43;22.00;87.80
1570;DHT22;778;50.120;8.698;2023-09-19T13:35:15;22.00;86.30
1570;DHT22;778;50.120;8.698;2023-09-19T13:37:43;22.10;86.90
1570;DHT22;778;50.120;8.698;2023-09-19T13:40:18;22.20;87.90
1570;DHT22;778;50.120;8.698;2023-09-19T13:42:48;22.20;88.60
1570;DHT22;778;50.120;8.698;2023-09-19T13:45:20;22.10;87.80
1570;DHT22;778;50.120;8.698;2023-09-19T13:47:51;22.20;88.30
1570;DHT22;778;50.120;8.698;2023-09-19T13:50:20;22.10;90.30
1570;DHT22;778;50.120;8.698;2023-09-19T13:52:51;22.00;87.80
1570;DHT22;778;50.120;8.698;2023-09-19T13:55:20;22.10;90.00
1570;DHT22;778;50.120;8.698;2023-09-19T13:57:49;21.90;89.90
1570;DHT22;778;50.120;8.698;2023-09-19T14:00:22;22.00;88.60
1570;DHT22;778;50.120;8.698;2023-09-19T14:02:50;22.00;88.80
1570;DHT22;778;50.120;8.698;2023-09-19T14:05:19;22.10;90.80
1570;DHT22;778;50.120;8.698;2023-09-19T14:07:49;22.10;90.10
1570;DHT22;778;50.120;8.698;2023-09-19T14:10:18;22.20;90.20
1570;DHT22;778;50.120;8.698;2023-09-19T14:12:46;22.20;90.60
1570;DHT22;778;50.120;8.698;2023-09-19T14:15:16;22.20;90.10
1570;DHT22;778;50.120;8.698;2023-09-19T14:17:44;22.00;88.20
1570;DHT22;778;50.120;8.698;2023-09-19T14:20:13;22.10;89.90
1570;DHT22;778;50.120;8.698;2023-09-19T14:22:42;22.20;90.00
1570;DHT22;778;50.120;8.698;2023-09-19T14:25:11;22.30;90.80
1570;DHT22;778;50.120;8.698;2023-09-19T14:27:39;22.20;90.50
1570;DHT22;778;50.120;8.698;2023-09-19T14:30:09;22.10;90.90
1570;DHT22;778;50.120;8.698;2023-09-19T14:32:39;22.20;89.50
1570;DHT22;778;50.120;8.698;2023-09-19T14:35:08;22.00;88.90
1570;DHT22;778;50.120;8.698;2023-09-19T14:37:37;22.10;90.10
1570;DHT22;778;50.120;8.698;2023-09-19T14:40:08;22.10;87.60
1570;DHT22;778;50.120;8.698;2023-09-19T14:42:39;21.90;87.30
1570;DHT22;778;50.120;8.698;2023-09-19T14:45:08;21.90;89.30
1570;DHT22;778;50.120;8.698;2023-09-19T14:47:39;22.00;86.60
1570;DHT22;778;50.120;8.698;2023-09-19T14:50:09;21.90;87.80
1570;DHT22;778;50.120;8.698;2023-09-19T14:52:39;22.00;89.20
1570;DHT22;778;50.120;8.698;2023-09-19T14:55:08;22.00;88.70
1570;DHT22;778;50.120;8.698;2023-09-19T14:57:41;22.10;88.10
1570;DHT22;778;50.120;8.698;2023-09-19T15:00:12;21.90;88.00
1570;DHT22;778;50.120;8.698;2023-09-19T15:02:43;21.90;88.40
1570;DHT22;778;50.120;8.698;2023-09-19T15:05:13;21.90;87.40
1570;DHT22;778;50.120;8.698;2023-09-19T15:07:46;21.90;88.30
1570;DHT22;778;50.120;8.698;2023-09-19T15:10:14;21.70;89.00
1570;DHT22;778;50.120;8.698;2023-09-19T15:12:44;21.90;89.40
1570;DHT22;778;50.120;8.698;2023-09-19T15:15:12;22.00;90.60
1570;DHT22;778;50.120;8.698;2023-09-19T15:17:42;21.90;88.70
1570;DHT22;778;50.120;8.698;2023-09-19T15:20:11;21.80;88.70
1570;DHT22;778;50.120;8.698;2023-09-19T15:22:41;21.80;89.50
1570;DHT22;778;50.120;8.698;2023-09-19T15:25:10;21.60;89.60
1570;DHT22;778;50.120;8.698;2023-09-19T15:27:38;21.70;90.10
1570;DHT22;778;50.120;8.698;2023-09-19T15:30:09;21.80;90.20
1570;DHT22;778;50.120;8.698;2023-09-19T15:32:38;21.60;90.50
1570;DHT22;778;50.120;8.698;2023-09-19T15:35:08;21.60;91.00
1570;DHT22;778;50.120;8.698;2023-09-19T15:37:38;21.70;90.70
1570;DHT22;778;50.120;8.698;2023-09-19T15:40:08;21.60;90.70
1570;DHT22;778;50.120;8.698;2023-09-19T15:42:39;21.60;90.90
1570;DHT22;778;50.120;8.698;2023-09-19T15:45:08;21.60;91.20
1570;DHT22;778;50.120;8.698;2023-09-19T15:47:37;21.60;91.30
1570;DHT22;778;50.120;8.698;2023-09-19T15:50:08;21.70;91.60
1570;DHT22;778;50.120;8.698;2023-09-19T15:52:40;21.80;91.20
1570;DHT22;778;50.120;8.698;2023-09-19T15:55:09;21.80;91.80
1570;DHT22;778;50.120;8.698;2023-09-19T15:57:38;21.90;91.60
1570;DHT22;778;50.120;8.698;2023-09-19T16:00:08;21.90;91.90
1570;DHT22;778;50.120;8.698;2023-09-19T16:02:39;21.90;91.90
1570;DHT22;778;50.120;8.698;2023-09-19T16:05:10;21.90;92.00
1570;DHT22;778;50.120;8.698;2023-09-19T16:07:39;21.80;91.80
1570;DHT22;778;50.120;8.698;2023-09-19T16:10:08;21.80;92.50
1570;DHT22;778;50.120;8.698;2023-09-19T16:12:36;21.70;92.20
1570;DHT22;778;50.120;8.698;2023-09-19T16:15:06;21.70;92.30
1570;DHT22;778;50.120;8.698;2023-09-19T16:17:37;21.60;92.30
1570;DHT22;778;50.120;8.698;2023-09-19T16:20:07;21.60;92.50
1570;DHT22;778;50.120;8.698;2023-09-19T16:22:40;21.70;92.40
1570;DHT22;778;50.120;8.698;2023-09-19T16:25:09;21.70;93.20
1570;DHT22;778;50.120;8.698;2023-09-19T16:27:39;21.80;93.70
1570;DHT22;778;50.120;8.698;2023-09-19T16:30:08;21.70;93.10
1570;DHT22;778;50.120;8.698;2023-09-19T16:32:38;21.80;93.60
1570;DHT22;778;50.120;8.698;2023-09-19T16:35:07;21.70;93.90
1570;DHT22;778;50.120;8.698;2023-09-19T16:37:37;21.70;93.80
1570;DHT22;778;50.120;8.698;2023-09-19T16:40:08;21.60;94.10
1570;DHT22;778;50.120;8.698;2023-09-19T16:42:37;21.60;95.30
1570;DHT22;778;50.120;8.698;2023-09-19T16:45:07;21.60;95.00
1570;DHT22;778;50.120;8.698;2023-09-19T16:47:37;21.60;95.30
1570;DHT22;778;50.120;8.698;2023-09-19T16:50:06;21.80;94.80
1570;DHT22;778;50.120;8.698;2023-09-19T16:52:37;21.80;94.70
1570;DHT22;778;50.120;8.698;2023-09-19T16:55:07;21.70;94.90
1570;DHT22;778;50.120;8.698;2023-09-19T16:57:36;21.70;95.40
1570;DHT22;778;50.120;8.698;2023-09-19T17:00:06;21.60;95.30